Time;durP1;ratioP1;P1;durP2;ratioP2;P2;SDS_P1;SDS_P2;PMS_P1;PMS_P2;Temp;Humidity;BMP_temperature;BMP_pressure;BME280_temperature;BME280_humidity;BME280_pressure;Samples;Min_cycle;Max_cycle;Signal;HPM_P1;HPM_P2
2022/05/23 00:01:47;;;;;;;3.20;1.65;;;20.40;58.60;;;;;;10412416;28;20508;-59
2022/05/23 00:06:49;;;;;;;2.90;1.65;;;20.40;58.60;;;;;;10413309;28;20068;-59
2022/05/23 00:11:50;;;;;;;4.68;1.55;;;20.40;58.60;;;;;;10413144;28;20148;-59
2022/05/23 00:16:50;;;;;;;2.65;1.90;;;20.40;58.60;;;;;;10412969;28;20116;-59
2022/05/23 00:21:51;;;;;;;3.85;1.77;;;20.40;58.60;;;;;;10414805;28;20025;-59
2022/05/23 00:26:52;;;;;;;2.03;1.40;;;20.40;58.50;;;;;;10412605;28;20060;-59
2022/05/23 00:37:12;;;;;;;2.05;1.45;;;20.40;58.60;;;;;;10412260;28;20402;-59
2022/05/23 00:47:36;;;;;;;2.83;1.20;;;20.40;58.60;;;;;;10415823;28;20041;-59
2022/05/23 00:52:47;;;;;;;3.95;1.65;;;20.40;58.60;;;;;;10420724;28;20076;-59
2022/05/23 00:57:54;;;;;;;2.35;1.15;;;20.40;58.60;;;;;;10419186;28;20104;-59
2022/05/23 01:03:00;;;;;;;2.55;1.50;;;20.40;58.60;;;;;;10420513;28;20025;-59
2022/05/23 01:08:01;;;;;;;2.50;1.35;;;20.40;58.60;;;;;;10426482;28;20029;-59
2022/05/23 01:13:03;;;;;;;2.45;1.33;;;20.40;58.60;;;;;;10420017;28;20082;-59
2022/05/23 01:18:04;;;;;;;2.45;1.70;;;20.40;58.50;;;;;;10416331;28;20056;-60
2022/05/23 01:23:32;;;;;;;3.58;1.55;;;20.40;58.60;;;;;;10421605;28;20033;-59
2022/05/23 01:28:38;;;;;;;3.00;1.73;;;20.40;58.70;;;;;;10417484;28;20104;-59
2022/05/23 01:33:39;;;;;;;2.25;1.27;;;20.40;58.60;;;;;;10418934;28;20059;-59
2022/05/23 01:38:41;;;;;;;3.47;1.77;;;20.40;58.60;;;;;;10418667;28;20029;-59
2022/05/23 01:43:41;;;;;;;2.25;1.50;;;20.40;58.70;;;;;;10418533;28;20351;-58
2022/05/23 01:48:42;;;;;;;2.65;1.40;;;20.40;58.60;;;;;;10418193;28;20021;-58
2022/05/23 01:53:43;;;;;;;2.00;1.15;;;20.40;58.70;;;;;;10433536;28;20125;-59
2022/05/23 02:04:03;;;;;;;2.78;1.40;;;20.40;58.70;;;;;;10417476;28;20045;-59
2022/05/23 02:09:04;;;;;;;1.90;1.30;;;20.40;58.70;;;;;;10431643;28;20029;-59
2022/05/23 02:14:04;;;;;;;2.13;1.52;;;20.40;58.70;;;;;;10417427;28;20108;-59
2022/05/23 02:19:05;;;;;;;2.80;1.80;;;20.40;58.80;;;;;;10405873;28;20075;-59
2022/05/23 02:24:06;;;;;;;2.15;1.27;;;20.40;58.80;;;;;;10418525;28;20064;-60
2022/05/23 02:29:08;;;;;;;2.08;1.50;;;20.40;58.80;;;;;;10417008;28;20021;-60
2022/05/23 02:34:10;;;;;;;2.50;1.35;;;20.40;58.80;;;;;;10416359;28;20099;-59
2022/05/23 02:39:12;;;;;;;2.60;1.30;;;20.30;58.90;;;;;;10416095;28;20025;-59
2022/05/23 02:44:12;;;;;;;1.63;1.20;;;20.30;58.90;;;;;;10416060;28;20041;-59
2022/05/23 02:49:13;;;;;;;1.85;1.33;;;20.30;58.90;;;;;;10416105;28;20037;-59
2022/05/23 02:54:14;;;;;;;1.83;1.48;;;20.30;58.90;;;;;;10415931;28;20079;-59
2022/05/23 02:59:15;;;;;;;1.83;1.42;;;20.30;58.90;;;;;;10415788;28;20029;-58
2022/05/23 03:04:16;;;;;;;2.58;1.80;;;20.30;58.90;;;;;;10414865;28;20043;-58
2022/05/23 03:09:16;;;;;;;3.17;1.35;;;20.30;59.00;;;;;;10413356;28;20051;-59
2022/05/23 03:14:17;;;;;;;2.38;1.33;;;20.30;59.00;;;;;;10415021;28;20378;-59
2022/05/23 03:19:18;;;;;;;3.55;1.60;;;20.30;59.10;;;;;;10411725;28;20037;-59
2022/05/23 03:29:38;;;;;;;2.42;1.50;;;20.30;59.10;;;;;;10413033;28;20042;-59
2022/05/23 03:34:39;;;;;;;2.78;1.50;;;20.30;59.20;;;;;;10413734;28;20037;-59
2022/05/23 03:39:40;;;;;;;2.25;1.33;;;20.30;59.20;;;;;;10414231;28;20520;-59
2022/05/23 03:44:40;;;;;;;1.83;1.45;;;20.20;59.20;;;;;;10413708;28;20029;-59
2022/05/23 03:49:41;;;;;;;1.88;1.30;;;20.30;59.20;;;;;;10413709;28;20116;-59
2022/05/23 03:54:42;;;;;;;2.83;2.10;;;20.20;59.20;;;;;;10413367;28;20033;-59
2022/05/23 03:59:42;;;;;;;2.08;1.42;;;20.20;59.20;;;;;;10413524;28;20038;-59
2022/05/23 04:04:43;;;;;;;2.50;1.30;;;20.20;59.30;;;;;;10411089;28;20485;-58
2022/05/23 04:09:44;;;;;;;1.67;1.30;;;20.30;59.30;;;;;;10412119;28;20164;-59
2022/05/23 04:14:44;;;;;;;2.05;1.50;;;20.20;59.30;;;;;;10411982;28;20112;-57
2022/05/23 04:19:45;;;;;;;1.85;1.50;;;20.20;59.30;;;;;;10411910;28;20543;-59
2022/05/23 04:24:46;;;;;;;2.40;1.40;;;20.20;59.30;;;;;;10412743;28;20415;-59
2022/05/23 04:29:46;;;;;;;2.33;1.55;;;20.20;59.50;;;;;;10409525;28;20036;-57
2022/05/23 04:40:07;;;;;;;8.05;1.83;;;20.20;60.20;;;;;;10412774;28;20045;-62
2022/05/23 04:45:11;;;;;;;10.15;2.13;;;20.30;60.60;;;;;;10417499;28;20378;-59
2022/05/23 04:50:12;;;;;;;5.20;1.77;;;20.40;60.40;;;;;;10410543;28;20026;-60
2022/05/23 04:55:14;;;;;;;7.15;2.53;;;20.40;61.30;;;;;;10410991;28;20049;-60
2022/05/23 05:00:20;;;;;;;6.20;1.95;;;20.40;60.70;;;;;;10411304;28;20033;-58
2022/05/23 05:05:21;;;;;;;9.32;2.80;;;20.40;61.80;;;;;;10416644;28;20091;-61
2022/05/23 05:10:23;;;;;;;3.47;1.65;;;20.40;62.10;;;;;;10410626;28;20079;-57
2022/05/23 05:15:27;;;;;;;3.55;1.92;;;20.40;61.50;;;;;;10411712;28;20041;-60
2022/05/23 05:20:29;;;;;;;8.73;2.65;;;20.40;61.70;;;;;;10407274;28;20025;-61
2022/05/23 05:25:29;;;;;;;8.30;2.25;;;20.40;61.70;;;;;;10408706;28;20037;-61
2022/05/23 05:30:30;;;;;;;22.70;3.55;;;20.40;61.60;;;;;;10407438;28;20025;-60
2022/05/23 05:35:48;;;;;;;24.30;4.25;;;20.40;61.60;;;;;;10414035;28;20057;-61
2022/05/23 05:40:57;;;;;;;20.63;3.45;;;20.40;62.10;;;;;;10414655;28;20466;-58
2022/05/23 05:46:04;;;;;;;11.77;2.70;;;20.40;61.90;;;;;;10422078;28;20053;-61
2022/05/23 05:51:05;;;;;;;10.30;3.13;;;20.40;62.00;;;;;;10414403;28;20505;-61
2022/05/23 05:56:06;;;;;;;9.13;2.40;;;20.40;62.60;;;;;;10415810;28;20124;-62
2022/05/23 06:01:07;;;;;;;15.18;3.67;;;20.40;62.50;;;;;;10423459;28;20069;-59
2022/05/23 06:11:27;;;;;;;10.50;2.80;;;20.50;62.60;;;;;;10421110;28;20116;-61
2022/05/23 06:16:33;;;;;;;23.02;3.95;;;20.50;63.10;;;;;;10416023;28;20108;-60
2022/05/23 06:21:34;;;;;;;17.33;4.25;;;20.50;62.60;;;;;;10415464;28;20104;-60
2022/05/23 06:26:34;;;;;;;13.52;3.28;;;20.40;62.60;;;;;;10416232;28;20029;-60
2022/05/23 06:31:35;;;;;;;13.65;3.13;;;20.40;62.30;;;;;;10415003;28;20117;-61
2022/05/23 06:36:37;;;;;;;24.05;4.88;;;20.40;62.30;;;;;;10415114;28;20065;-60
2022/05/23 06:41:37;;;;;;;9.63;3.90;;;20.40;62.00;;;;;;10416151;28;20040;-60
2022/05/23 06:46:38;;;;;;;12.77;4.43;;;20.40;62.00;;;;;;10409273;28;20042;-59
2022/05/23 06:51:40;;;;;;;8.02;3.40;;;20.40;62.00;;;;;;10412927;28;20104;-59
2022/05/23 06:56:42;;;;;;;6.53;3.88;;;20.40;61.70;;;;;;10413112;28;20117;-58
2022/05/23 07:01:44;;;;;;;9.07;4.57;;;20.40;61.70;;;;;;10412885;28;20036;-59
2022/05/23 07:17:24;;;;;;;;;;;20.40;62.30;;;;;;10414804;28;20037;-58
2022/05/23 07:22:25;;;;;;;18.25;6.65;;;20.40;62.60;;;;;;10412866;28;19909;-59
2022/05/23 07:27:27;;;;;;;9.57;4.95;;;20.40;62.50;;;;;;10414732;28;20030;-58
2022/05/23 07:32:29;;;;;;;16.13;5.97;;;20.40;62.70;;;;;;10411974;28;20568;-58
2022/05/23 07:37:31;;;;;;;11.30;5.63;;;20.40;62.70;;;;;;10412428;28;20025;-59
2022/05/23 07:42:31;;;;;;;8.38;5.00;;;20.40;62.20;;;;;;10408723;28;20029;-59
2022/05/23 07:47:32;;;;;;;9.48;4.55;;;20.40;62.00;;;;;;10406074;28;20033;-59
2022/05/23 07:52:33;;;;;;;5.80;4.65;;;20.40;62.00;;;;;;10413209;28;20017;-59
2022/05/23 08:02:44;;;;;;;7.47;4.63;;;20.50;62.10;;;;;;10412992;28;20176;-61
2022/05/23 08:07:45;;;;;;;6.60;4.53;;;20.50;62.20;;;;;;10412485;28;20083;-60
2022/05/23 08:12:54;;;;;;;7.70;4.10;;;20.50;62.10;;;;;;10413036;28;20112;-58
2022/05/23 08:17:55;;;;;;;10.32;4.68;;;20.50;63.00;;;;;;10411424;28;20032;-58
2022/05/23 08:22:57;;;;;;;6.82;4.47;;;20.40;62.40;;;;;;10413833;28;20037;-60
2022/05/23 08:27:58;;;;;;;7.78;4.60;;;20.50;62.30;;;;;;10412556;28;20021;-60
2022/05/23 08:32:58;;;;;;;10.10;4.07;;;20.50;63.40;;;;;;10411622;28;20378;-60
2022/05/23 08:38:00;;;;;;;7.82;4.18;;;20.50;62.80;;;;;;10412211;28;20064;-60
2022/05/23 08:43:05;;;;;;;7.03;3.97;;;20.50;62.40;;;;;;10412077;28;20028;-59
2022/05/23 08:48:17;;;;;;;6.75;4.65;;;20.50;62.50;;;;;;10424209;28;20044;-60
2022/05/23 08:53:56;;;;;;;7.43;4.50;;;20.50;62.40;;;;;;10412098;28;20497;-57
2022/05/23 08:59:02;;;;;;;5.68;3.70;;;20.50;62.50;;;;;;10410272;28;20075;-60
2022/05/23 09:04:28;;;;;;;5.53;4.47;;;20.50;62.50;;;;;;10406672;28;20048;-60
2022/05/23 09:09:32;;;;;;;4.90;4.20;;;20.60;62.60;;;;;;10430083;28;20056;-58
2022/05/23 09:14:32;;;;;;;13.40;4.78;;;20.50;62.50;;;;;;10419253;28;20061;-59
2022/05/23 09:19:45;;;;;;;14.65;5.65;;;20.70;63.60;;;;;;10418999;28;20022;-60
2022/05/23 09:24:47;;;;;;;12.27;4.15;;;20.80;63.80;;;;;;10419379;28;20591;-62
2022/05/23 09:29:55;;;;;;;7.90;4.13;;;20.90;64.10;;;;;;10418411;28;20032;-60
2022/05/23 09:35:00;;;;;;;7.50;4.32;;;20.90;64.60;;;;;;10416450;28;20413;-60
2022/05/23 09:40:01;;;;;;;9.10;3.90;;;20.90;64.40;;;;;;10417063;28;20511;-60
2022/05/23 09:50:27;;;;;;;8.63;3.85;;;20.80;64.20;;;;;;10417845;28;20037;-60
2022/05/23 09:55:35;;;;;;;6.28;3.90;;;20.90;64.20;;;;;;10417871;28;20075;-60
2022/05/23 10:00:39;;;;;;;12.20;4.75;;;20.90;64.30;;;;;;10416619;28;20470;-60
2022/05/23 10:05:50;;;;;;;9.07;3.83;;;20.80;63.90;;;;;;10416747;28;20041;-60
2022/05/23 10:10:58;;;;;;;9.48;4.32;;;20.70;63.60;;;;;;10416313;28;20106;-60
2022/05/23 10:16:10;;;;;;;11.53;4.57;;;20.70;63.40;;;;;;10416802;28;20037;-60
2022/05/23 10:21:32;;;;;;;8.10;4.10;;;20.70;63.30;;;;;;10415008;28;20375;-60
2022/05/23 10:26:59;;;;;;;7.50;3.85;;;20.70;63.30;;;;;;10397156;28;20132;-60
2022/05/23 10:32:22;;;;;;;8.02;3.50;;;20.70;63.30;;;;;;10416114;28;20549;-62
2022/05/23 10:37:26;;;;;;;7.32;3.58;;;20.70;63.40;;;;;;10430416;28;20093;-59
2022/05/23 10:42:36;;;;;;;8.02;3.90;;;20.70;64.50;;;;;;10388564;28;20033;-59
2022/05/23 10:48:10;;;;;;;10.85;4.43;;;20.70;65.00;;;;;;10415373;28;20033;-60
2022/05/23 10:53:31;;;;;;;7.40;3.85;;;20.70;65.10;;;;;;10429809;28;20437;-60
2022/05/23 10:58:43;;;;;;;10.95;3.95;;;20.70;65.00;;;;;;10413701;28;20504;-59
2022/05/23 11:03:55;;;;;;;6.70;3.75;;;20.70;65.00;;;;;;10416698;28;20474;-59
2022/05/23 11:09:08;;;;;;;8.15;4.32;;;20.70;65.00;;;;;;10412347;28;20032;-60
2022/05/23 11:14:53;;;;;;;12.75;4.63;;;20.70;64.00;;;;;;10414170;28;20144;-60
2022/05/23 11:20:12;;;;;;;8.60;3.67;;;20.70;64.10;;;;;;10414051;28;20481;-60
2022/05/23 11:25:30;;;;;;;13.52;4.15;;;20.70;64.80;;;;;;10413092;28;20061;-58
2022/05/23 11:35:53;;;;;;;9.82;4.57;;;20.80;64.60;;;;;;10419622;28;20062;-61
2022/05/23 11:41:11;;;;;;;16.05;4.32;;;20.90;64.60;;;;;;10413580;28;20064;-60
2022/05/23 11:46:12;;;;;;;19.00;5.00;;;20.90;64.50;;;;;;10412344;28;20041;-61
2022/05/23 11:51:12;;;;;;;13.40;6.13;;;21.00;64.70;;;;;;10412037;28;20026;-64
2022/05/23 11:56:55;;;;;;;10.18;5.03;;;21.00;64.10;;;;;;10411976;28;20065;-63
2022/05/23 12:02:08;;;;;;;12.35;4.28;;;21.00;64.00;;;;;;10413023;28;20033;-64
2022/05/23 12:07:31;;;;;;;9.23;3.80;;;21.00;63.90;;;;;;10412508;28;20057;-64
2022/05/23 12:12:43;;;;;;;5.68;3.97;;;21.00;63.80;;;;;;10412657;28;20029;-63
2022/05/23 12:18:01;;;;;;;8.05;4.07;;;21.00;63.70;;;;;;10426793;28;20359;-64
2022/05/23 12:23:47;;;;;;;10.27;3.63;;;21.00;63.70;;;;;;10401220;28;20033;-64
2022/05/23 12:28:59;;;;;;;7.45;3.50;;;21.00;63.60;;;;;;10403828;28;20095;-63
2022/05/23 12:34:12;;;;;;;5.97;3.60;;;21.00;63.70;;;;;;10427514;28;20058;-63
2022/05/23 12:39:48;;;;;;;5.85;3.20;;;21.00;63.70;;;;;;10426933;28;20033;-64
2022/05/23 12:45:34;;;;;;;6.30;3.78;;;20.90;63.70;;;;;;10418694;28;20037;-65
2022/05/23 12:50:53;;;;;;;7.30;3.47;;;20.90;63.70;;;;;;10420381;28;20036;-64
2022/05/23 12:56:21;;;;;;;6.85;3.60;;;20.90;64.60;;;;;;10420218;28;20484;-65
2022/05/23 13:01:28;;;;;;;5.22;3.30;;;20.90;64.80;;;;;;10420032;28;20029;-63
2022/05/23 13:06:42;;;;;;;5.15;3.22;;;21.00;65.20;;;;;;10434761;28;20276;-65
2022/05/23 13:11:49;;;;;;;8.40;3.45;;;20.90;65.10;;;;;;10434499;28;20496;-63
2022/05/23 13:16:54;;;;;;;6.97;3.80;;;21.00;65.30;;;;;;10417901;28;20033;-66
2022/05/23 13:22:05;;;;;;;5.95;3.17;;;20.90;64.80;;;;;;10421393;28;20104;-68
2022/05/23 13:27:08;;;;;;;8.95;3.72;;;20.90;65.20;;;;;;10433622;28;20144;-66
2022/05/23 13:32:16;;;;;;;12.30;3.53;;;20.90;64.70;;;;;;10419429;28;20048;-67
2022/05/23 13:37:30;;;;;;;8.90;3.72;;;20.90;65.60;;;;;;10418651;28;20382;-66
2022/05/23 13:42:31;;;;;;;9.35;3.63;;;20.90;64.80;;;;;;10417014;28;20066;-64
2022/05/23 13:47:33;;;;;;;7.30;3.45;;;20.80;64.70;;;;;;10418678;28;20549;-65
2022/05/23 13:52:42;;;;;;;5.85;3.20;;;20.80;64.60;;;;;;10418050;28;20511;-66
2022/05/23 13:57:49;;;;;;;;;;;20.80;64.80;;;;;;10433081;28;20029;-65
2022/05/23 14:03:04;;;;;;;7.28;3.30;;;20.80;65.30;;;;;;10416859;28;19913;-66
2022/05/23 14:08:06;;;;;;;6.13;3.22;;;20.80;65.30;;;;;;10431659;28;20064;-66
2022/05/23 14:13:08;;;;;;;20.63;3.88;;;20.80;65.20;;;;;;10416200;28;20367;-65
2022/05/23 14:18:16;;;;;;;10.10;3.47;;;20.80;66.00;;;;;;10432102;28;20034;-65
2022/05/23 14:23:17;;;;;;;10.98;4.35;;;20.80;66.10;;;;;;10418839;28;20382;-66
2022/05/23 14:28:23;;;;;;;9.93;3.95;;;20.90;66.40;;;;;;10432390;28;20025;-65
2022/05/23 14:33:43;;;;;;;7.32;3.08;;;20.90;66.40;;;;;;10415644;28;20040;-65
2022/05/23 14:38:47;;;;;;;6.88;3.50;;;20.90;67.10;;;;;;10417639;28;20041;-65
2022/05/23 14:44:07;;;;;;;5.90;3.30;;;21.00;67.20;;;;;;10415869;28;20052;-63
2022/05/23 14:49:16;;;;;;;7.30;3.45;;;21.20;66.40;;;;;;10415691;28;20242;-62
2022/05/23 15:05:11;;;;;;;6.18;4.07;;;21.60;65.70;;;;;;10418689;28;20029;-63
2022/05/23 15:10:14;;;;;;;5.93;5.30;;;21.60;65.80;;;;;;10414482;28;20108;-61
2022/05/23 15:15:18;;;;;;;8.35;5.10;;;21.70;65.30;;;;;;10414670;28;20040;-63
2022/05/23 15:20:19;;;;;;;10.85;6.07;;;21.80;65.50;;;;;;10412203;28;20084;-65
2022/05/23 15:25:20;;;;;;;10.75;7.43;;;21.80;65.60;;;;;;10415511;28;20116;-62
2022/05/23 15:30:30;;;;;;;8.85;7.78;;;21.90;66.10;;;;;;10413765;28;20484;-63
2022/05/23 15:35:30;;;;;;;8.70;7.80;;;21.90;66.30;;;;;;10410067;28;20123;-64
2022/05/23 15:40:35;;;;;;;12.00;10.93;;;21.90;66.20;;;;;;10413666;28;20084;-66
2022/05/23 15:45:39;;;;;;;12.90;10.82;;;22.00;65.90;;;;;;10411266;28;20032;-63
2022/05/23 15:50:42;;;;;;;13.90;10.27;;;22.00;67.70;;;;;;10412560;28;20075;-66
2022/05/23 15:55:45;;;;;;;18.55;16.98;;;21.90;68.80;;;;;;10409829;28;20025;-67
2022/05/23 16:00:47;;;;;;;16.85;14.48;;;22.00;72.00;;;;;;10395464;28;20079;-62
2022/05/23 16:05:50;;;;;;;18.20;14.98;;;22.20;69.40;;;;;;10411014;28;20072;-64
2022/05/23 16:11:13;;;;;;;18.95;16.10;;;22.00;70.20;;;;;;10411360;28;20021;-64
2022/05/23 16:16:16;;;;;;;17.98;16.17;;;21.90;70.30;;;;;;10397316;28;20037;-63
2022/05/23 16:21:17;;;;;;;20.90;19.02;;;21.80;70.40;;;;;;10409780;28;20037;-64
2022/05/23 16:26:18;;;;;;;21.08;18.60;;;21.70;70.10;;;;;;10412200;28;20022;-63
2022/05/23 16:31:20;;;;;;;19.67;17.65;;;21.70;69.80;;;;;;10411562;28;20034;-65
2022/05/23 16:36:35;;;;;;;21.52;18.83;;;21.70;69.70;;;;;;10412325;28;20049;-64
2022/05/23 16:41:38;;;;;;;19.95;18.27;;;21.70;69.60;;;;;;10412540;28;20112;-63
2022/05/23 16:46:41;;;;;;;19.13;17.42;;;21.70;69.60;;;;;;10412125;28;20065;-65
2022/05/23 16:51:44;;;;;;;26.88;19.67;;;21.70;69.70;;;;;;10411497;28;20034;-64
2022/05/23 16:56:44;;;;;;;16.90;15.60;;;21.70;69.80;;;;;;10403846;28;20033;-64
2022/05/23 17:01:45;;;;;;;20.38;18.52;;;21.80;69.00;;;;;;10409724;28;20030;-70
2022/05/23 17:06:46;;;;;;;17.13;15.80;;;21.80;69.10;;;;;;10411599;28;20406;-66
2022/05/23 17:11:46;;;;;;;20.45;18.60;;;21.60;69.60;;;;;;10411678;28;20419;-66
2022/05/23 17:16:48;;;;;;;21.30;19.45;;;21.50;69.50;;;;;;10411101;28;20100;-66
2022/05/23 17:21:48;;;;;;;20.08;18.27;;;21.40;69.90;;;;;;10409745;28;20025;-67
2022/05/23 17:26:49;;;;;;;19.10;17.50;;;21.50;69.60;;;;;;10409644;28;20061;-66
2022/05/23 17:31:50;;;;;;;18.75;17.35;;;21.40;69.30;;;;;;10413494;28;20025;-68
2022/05/23 17:36:52;;;;;;;19.40;18.02;;;21.40;69.30;;;;;;10412941;28;20553;-68
2022/05/23 17:41:53;;;;;;;21.52;19.63;;;21.40;69.50;;;;;;10392086;28;20034;-68
2022/05/23 17:46:54;;;;;;;18.65;17.33;;;21.30;69.20;;;;;;10400120;28;20025;-69
2022/05/23 17:51:54;;;;;;;20.35;18.88;;;21.30;69.10;;;;;;10401384;28;20040;-69
2022/05/23 17:56:55;;;;;;;21.42;19.80;;;21.30;69.20;;;;;;10407767;28;20104;-69
2022/05/23 18:01:56;;;;;;;20.60;19.27;;;21.30;69.30;;;;;;10415942;28;20116;-68
2022/05/23 18:06:57;;;;;;;21.35;19.80;;;21.30;69.40;;;;;;10416409;28;20052;-70
2022/05/23 18:11:58;;;;;;;22.48;21.08;;;21.30;69.60;;;;;;10416428;28;20033;-66
2022/05/23 18:22:19;;;;;;;27.73;26.33;;;21.30;70.10;;;;;;10415945;28;20465;-65
2022/05/23 18:27:19;;;;;;;28.45;26.58;;;21.30;69.80;;;;;;10412433;28;20037;-62
2022/05/23 18:32:21;;;;;;;29.80;27.90;;;21.30;69.70;;;;;;10413174;28;20124;-65
2022/05/23 18:37:21;;;;;;;34.92;32.28;;;21.30;69.60;;;;;;10416849;28;20057;-64
2022/05/23 18:42:23;;;;;;;29.05;27.33;;;21.30;69.60;;;;;;10414580;28;20044;-65
2022/05/23 18:47:24;;;;;;;28.48;26.88;;;21.20;69.40;;;;;;10404008;28;20113;-65
2022/05/23 18:52:26;;;;;;;25.55;24.00;;;21.20;69.30;;;;;;10400463;28;20033;-64
2022/05/23 18:57:27;;;;;;;25.20;23.80;;;21.20;68.80;;;;;;10413107;28;20538;-61
2022/05/23 19:02:32;;;;;;;24.60;23.27;;;21.30;70.30;;;;;;10414693;28;20025;-62
2022/05/23 19:07:33;;;;;;;24.27;22.63;;;21.30;70.00;;;;;;10415324;28;20029;-62
2022/05/23 19:12:34;;;;;;;22.75;21.30;;;21.30;70.10;;;;;;10413784;28;20022;-62
2022/05/23 19:17:35;;;;;;;23.15;21.80;;;21.20;70.00;;;;;;10413159;28;20474;-63
2022/05/23 19:22:36;;;;;;;20.80;19.60;;;21.20;69.70;;;;;;10413398;28;20025;-66
2022/05/23 19:27:36;;;;;;;21.42;19.98;;;21.20;69.80;;;;;;10413935;28;20107;-66
2022/05/23 19:32:37;;;;;;;20.67;19.38;;;21.20;69.10;;;;;;10413055;28;20044;-66
2022/05/23 19:37:38;;;;;;;19.25;17.85;;;21.20;68.90;;;;;;10413256;28;20041;-66
2022/05/23 19:42:41;;;;;;;18.60;17.23;;;21.20;68.70;;;;;;10414338;28;20145;-66
2022/05/23 19:47:42;;;;;;;20.88;19.27;;;21.20;68.50;;;;;;10411814;28;20035;-65
2022/05/23 19:52:45;;;;;;;17.55;16.65;;;21.20;68.40;;;;;;10412618;28;20108;-64
2022/05/23 19:57:47;;;;;;;18.27;16.80;;;21.20;68.20;;;;;;10411633;28;20029;-64
2022/05/23 20:08:12;;;;;;;17.20;16.17;;;21.10;68.00;;;;;;10410930;28;20065;-66
2022/05/23 20:13:13;;;;;;;16.67;15.57;;;21.10;67.90;;;;;;10410019;28;20061;-64
2022/05/23 20:18:19;;;;;;;15.25;14.32;;;21.10;67.70;;;;;;10410209;28;20041;-65
2022/05/23 20:23:23;;;;;;;15.60;14.60;;;21.10;67.80;;;;;;10412158;28;20045;-64
2022/05/23 20:28:26;;;;;;;15.07;13.85;;;21.10;67.60;;;;;;10412594;28;20417;-65
2022/05/23 20:33:26;;;;;;;14.63;13.65;;;21.00;67.60;;;;;;10411405;28;20405;-65
2022/05/23 20:38:27;;;;;;;14.38;13.57;;;21.00;67.60;;;;;;10411063;28;20032;-65
2022/05/23 20:43:28;;;;;;;13.82;13.02;;;21.00;67.50;;;;;;10412533;28;20109;-65
2022/05/23 20:48:28;;;;;;;14.10;13.18;;;21.00;67.30;;;;;;10412322;28;20060;-65
2022/05/23 20:53:29;;;;;;;15.57;14.55;;;21.00;67.50;;;;;;10410776;28;20508;-63
2022/05/23 20:58:31;;;;;;;13.18;12.18;;;21.00;67.40;;;;;;10411800;28;20103;-65
2022/05/23 21:03:32;;;;;;;13.73;12.70;;;21.00;67.20;;;;;;10399028;28;20393;-65
2022/05/23 21:08:34;;;;;;;12.15;11.38;;;21.00;67.30;;;;;;10420197;28;20059;-65
2022/05/23 21:13:35;;;;;;;12.32;11.52;;;20.90;67.10;;;;;;10419298;28;20022;-65
2022/05/23 21:18:36;;;;;;;12.27;11.55;;;20.90;67.00;;;;;;10419591;28;20037;-64
2022/05/23 21:23:37;;;;;;;12.45;11.57;;;20.90;67.00;;;;;;10421634;28;20053;-65
2022/05/23 21:28:37;;;;;;;12.98;12.07;;;20.90;66.90;;;;;;10417541;28;20526;-65
2022/05/23 21:33:38;;;;;;;11.65;10.95;;;20.90;66.90;;;;;;10419157;28;20044;-65
2022/05/23 21:38:39;;;;;;;10.88;9.93;;;20.90;66.90;;;;;;10418896;28;20123;-65
2022/05/23 21:48:58;;;;;;;11.27;10.48;;;20.90;66.90;;;;;;10417812;28;20033;-66
2022/05/23 21:53:59;;;;;;;10.30;9.60;;;20.90;66.80;;;;;;10412284;28;20056;-65
2022/05/23 21:59:00;;;;;;;9.68;9.07;;;20.90;66.70;;;;;;10417705;28;20104;-65
2022/05/23 22:04:02;;;;;;;10.95;10.15;;;20.90;66.60;;;;;;10416320;28;20038;-65
2022/05/23 22:09:04;;;;;;;10.25;9.55;;;20.90;66.70;;;;;;10415628;28;20120;-65
2022/05/23 22:14:05;;;;;;;9.93;9.32;;;20.90;66.70;;;;;;10417190;28;20087;-65
2022/05/23 22:19:06;;;;;;;10.40;9.68;;;20.80;66.60;;;;;;10412640;28;20041;-65
2022/05/23 22:24:09;;;;;;;9.52;8.93;;;20.80;66.60;;;;;;10418193;28;20429;-64
2022/05/23 22:29:10;;;;;;;9.20;8.60;;;20.80;66.50;;;;;;10420449;28;20033;-65
2022/05/23 22:34:11;;;;;;;9.68;8.98;;;20.80;66.40;;;;;;10416733;28;20053;-65
2022/05/23 22:39:12;;;;;;;8.98;8.38;;;20.80;66.50;;;;;;10416633;28;20041;-64
2022/05/23 22:44:12;;;;;;;9.50;8.82;;;20.80;66.50;;;;;;10416441;28;20030;-65
2022/05/23 22:49:13;;;;;;;8.48;7.93;;;20.80;66.50;;;;;;10416199;28;20061;-65
2022/05/23 22:54:13;;;;;;;9.75;9.13;;;20.80;66.50;;;;;;10416193;28;20401;-64
2022/05/23 22:59:14;;;;;;;8.85;8.23;;;20.80;66.50;;;;;;10415414;28;20434;-65
2022/05/23 23:04:21;;;;;;;7.97;7.45;;;20.70;66.50;;;;;;10415428;28;20121;-64
2022/05/23 23:09:21;;;;;;;8.85;8.25;;;20.80;66.50;;;;;;10415370;28;20031;-62
2022/05/23 23:14:23;;;;;;;8.63;8.02;;;20.70;66.50;;;;;;10415223;28;20045;-62
2022/05/23 23:19:24;;;;;;;8.82;8.20;;;20.70;66.50;;;;;;10403788;28;20034;-64
2022/05/23 23:24:25;;;;;;;8.20;7.60;;;20.70;66.50;;;;;;10415100;28;20044;-64
2022/05/23 23:29:27;;;;;;;7.85;7.25;;;20.70;66.50;;;;;;10414120;28;20362;-63
2022/05/23 23:39:47;;;;;;;8.45;7.85;;;20.70;66.50;;;;;;10414449;28;20037;-64
2022/05/23 23:44:49;;;;;;;7.30;6.80;;;20.70;66.40;;;;;;10414076;28;20454;-65
2022/05/23 23:49:51;;;;;;;7.53;6.93;;;20.70;66.40;;;;;;10413990;28;20048;-64
2022/05/23 23:54:52;;;;;;;8.20;7.50;;;20.70;66.40;;;;;;10413981;28;20401;-63
2022/05/23 23:59:53;;;;;;;7.38;6.82;;;20.70;66.40;;;;;;10413706;28;20470;-63
